ADDS METAR Data INFO
IDs: Format: Raw Decoded Include TAF

Data at: 1515 UTC 23 Oct 2017

KOKM 231455Z AUTO 23005KT 10SM CLR 14/07 A3005 RMK AO2 T01410066
KOKM 231435Z AUTO 22005KT 10SM CLR 12/07 A3005 RMK AO2 T01240066
KOKM 231415Z AUTO 17004KT 10SM CLR 11/07 A3005 RMK AO2 T01080072
KOKM 231355Z AUTO 14003KT 10SM CLR 10/07 A3005 RMK AO2 T00960069
KOKM 231335Z AUTO 00000KT 10SM CLR 08/07 A3005 RMK AO2 T00820065
KOKM 231315Z AUTO 12004KT 10SM CLR 07/06 A3004 RMK AO2 T00700064
KOKM 231255Z AUTO 00000KT 10SM CLR 06/06 A3004 RMK AO2 T00550055
KOKM 231235Z AUTO 00000KT 10SM CLR 05/05 A3004 RMK AO2 T00510051
KOKM 231215Z AUTO 00000KT 10SM CLR 06/06 A3003 RMK AO2 T00560056
KOKM 231155Z AUTO 00000KT 10SM CLR 05/05 A3004 RMK AO2 T00530053 10075 20050
KOKM 231135Z AUTO 00000KT 10SM CLR 06/06 A3004 RMK AO2 T00600060
KOKM 231115Z AUTO 15003KT 10SM CLR 06/06 A3005 RMK AO2 T00560056
KOKM 231055Z AUTO 21003KT 10SM CLR 05/05 A3006 RMK AO2 T00500050
KOKM 231035Z AUTO 00000KT 10SM CLR 06/06 A3005 RMK AO2 T00640064
KOKM 231015Z AUTO 00000KT 10SM CLR 06/06 A3006 RMK AO2 T00620062
KOKM 230955Z AUTO 25003KT 10SM CLR 06/06 A3006 RMK AO2 T00570057
KOKM 230935Z AUTO 00000KT 10SM CLR 06/06 A3006 RMK AO2 T00610061
KOKM 230915Z AUTO 00000KT 10SM CLR 07/07 A3006 RMK AO2 T00670067
KOKM 230855Z AUTO 00000KT 10SM CLR 07/07 A3007 RMK AO2 T00650065
KOKM 230835Z AUTO 00000KT 10SM CLR 07/07 A3007 RMK AO2 T00660066
KOKM 230815Z AUTO 00000KT 10SM CLR 07/07 A3008 RMK AO2 T00700070
KOKM 230755Z AUTO 00000KT 10SM CLR 07/07 A3009 RMK AO2 T00650065
KOKM 230735Z AUTO 00000KT 10SM CLR 07/07 A3009 RMK AO2 T00680068
KOKM 230715Z AUTO 00000KT 10SM CLR 07/07 A3009 RMK AO2 T00700070
KOKM 230655Z AUTO 26003KT 10SM CLR 07/07 A3010 RMK AO2 T00690069
KOKM 230635Z AUTO 00000KT 10SM CLR 07/07 A3010 RMK AO2 T00710071
KOKM 230615Z AUTO 00000KT 10SM CLR 08/08 A3010 RMK AO2 T00750075
KOKM 230555Z AUTO 00000KT 10SM CLR 08/08 A3010 RMK AO2 T00750075 10163 20070 402050070
KOKM 230535Z AUTO 26004KT 10SM CLR 08/08 A3011 RMK AO2 T00760076
KOKM 230515Z AUTO 26004KT 10SM CLR 08/08 A3011 RMK AO2 T00750075
KOKM 230455Z AUTO 10SM CLR 07/07 A3011 RMK AO2 T00730073
KOKM 230435Z AUTO 10SM CLR 08/08 A3011 RMK AO2 T00810081
KOKM 230415Z AUTO 10SM CLR 08/07 A3011 RMK AO2 T00790072
KOKM 230355Z AUTO 10SM CLR 09/08 A3011 RMK AO2 T00870076
KOKM 230335Z AUTO 10SM CLR 09/09 A3011 RMK AO2 T00850085
KOKM 230315Z AUTO 00000KT 7SM CLR 09/09 A3011 RMK AO2 T00880087
KOKM 230255Z AUTO 19005KT 10SM CLR 09/08 A3012 RMK AO2 T00920077
KOKM 230235Z AUTO 00000KT 10SM CLR 10/08 A3012 RMK AO2 T01000075
KOKM 230215Z AUTO 00000KT 10SM CLR 10/08 A3013 RMK AO2 T00980075
KOKM 230155Z AUTO 27005KT 10SM CLR 10/08 A3012 RMK AO2 T00990081
KOKM 230135Z AUTO 27005KT 10SM CLR 11/08 A3013 RMK AO2 T01050077
KOKM 230115Z AUTO 00000KT 10SM CLR 11/06 A3013 RMK AO2 T01140062
KOKM 230055Z AUTO 00000KT 10SM CLR 12/07 A3013 RMK AO2 T01160066
KOKM 230035Z AUTO 00000KT 10SM CLR 13/05 A3013 RMK AO2 T01320049
KOKM 230015Z AUTO 00000KT 10SM CLR 15/04 A3012 RMK AO2 T01480042
KOKM 222355Z AUTO 00000KT 10SM CLR 17/04 A3012 RMK AO2 T01660038 10205 20166
KOKM 222335Z AUTO 00000KT 10SM CLR 18/03 A3012 RMK AO2 T01750033
KOKM 222315Z AUTO 34004KT 10SM CLR 19/03 A3012 RMK AO2 T01890033
KOKM 222255Z AUTO 34005KT 10SM CLR 20/03 A3011 RMK AO2 T01950026
KOKM 222235Z AUTO 32007KT 290V350 10SM CLR 20/03 A3011 RMK AO2 T02010026
KOKM 222215Z AUTO 33010KT 300V360 10SM CLR 21/03 A3011 RMK AO2 T02050028
KOKM 222155Z AUTO 33009G16KT 10SM CLR 21/03 A3011 RMK AO2 T02050028
KOKM 222135Z AUTO 32009G17KT 10SM CLR 21/04 A3011 RMK AO2 T02050040
KOKM 222115Z AUTO 31008KT 20/04 A3012 RMK AO2 T02030040 PWINO
KOKM 222055Z AUTO 34011G20KT 300V010 10SM CLR 21/04 A3012 RMK AO2 T02050039
KOKM 222035Z AUTO 34012G18KT 310V020 10SM CLR 20/04 A3013 RMK AO2 T02010044
KOKM 222015Z AUTO 32009G16KT 10SM CLR 20/05 A3013 RMK AO2 T02010047
KOKM 221955Z AUTO 33008G16KT 300V020 10SM CLR 20/06 A3014 RMK AO2 T01990056
KOKM 221935Z AUTO 02014G19KT 10SM CLR 20/06 A3014 RMK AO2 T01970057
KOKM 221915Z AUTO 36014G19KT 310V020 10SM CLR 19/06 A3015 RMK AO2 T01930064
KOKM 221855Z AUTO 35010G19KT 310V020 10SM CLR 19/07 A3016 RMK AO2 T01900067
KOKM 221835Z AUTO 32008G16KT 10SM CLR 19/07 A3017 RMK AO2 T01860069
KOKM 221815Z AUTO 36015G20KT 310V010 10SM CLR 18/07 A3017 RMK AO2 T01810072
KOKM 221755Z AUTO 36014G20KT 10SM CLR 18/07 A3017 RMK AO2 T01780070 10178 20114
KOKM 221735Z AUTO 34012G22KT 10SM CLR 17/07 A3018 RMK AO2 T01720070
KOKM 221715Z AUTO 35014G18KT 10SM CLR 17/08 A3017 RMK AO2 T01720079
KOKM 221655Z AUTO 35010G19KT 310V010 10SM CLR 16/08 A3017 RMK AO2 T01630080
KOKM 221635Z AUTO 36012G21KT 10SM CLR 16/08 A3017 RMK AO2 T01580077
KOKM 221615Z AUTO 35010G19KT 10SM CLR 15/08 A3018 RMK AO2 T01520080
KOKM 221555Z AUTO 35010G18KT 10SM CLR 15/08 A3018 RMK AO2 T01450084
KOKM 221535Z AUTO 34011G16KT 10SM CLR 14/09 A3017 RMK AO2 T01410087
KOKM 221515Z AUTO 35011G19KT 10SM CLR 14/09 A3016 RMK AO2 T01360090
KOKM 221455Z AUTO 35011G17KT 10SM CLR 13/10 A3016 RMK AO2 T01330095
KOKM 221435Z AUTO 34008G16KT 310V010 10SM CLR 12/10 A3015 RMK AO2 T01230099
KOKM 221415Z AUTO 32010G15KT 280V360 10SM CLR 12/10 A3013 RMK AO2 T01160102
KOKM 221355Z AUTO 34009G14KT 290V010 10SM CLR 12/11 A3013 RMK AO2 T01150105
KOKM 221335Z AUTO 32007G14KT 280V350 10SM CLR 12/11 A3013 RMK AO2 T01150107
KOKM 221315Z AUTO 32008KT 290V360 10SM SCT010 12/11 A3011 RMK AO2 T01150112
KOKM 221255Z AUTO 34006KT 310V010 10SM BKN010 12/12 A3010 RMK AO2 T01160116
KOKM 221235Z AUTO 27006KT 10SM OVC010 12/12 A3011 RMK AO2 T01200120
KOKM 221215Z AUTO 29009KT 270V340 10SM OVC010 12/12 A3009 RMK AO2 T01200119
KOKM 221155Z AUTO 33008G16KT 10SM OVC010 12/12 A3008 RMK AO2 60013 70080 T01220120 10152 20122
KOKM 221135Z AUTO 35009G15KT 10SM OVC010 12/12 A3007 RMK AO2 T01230122
KOKM 221115Z AUTO 33008KT 310V010 10SM OVC010 13/13 A3006 RMK AO2 T01250125
KOKM 221055Z AUTO 35011G18KT 10SM OVC010 13/13 A3004 RMK AO2 T01260125
KOKM 221035Z AUTO 34009G16KT 10SM OVC008 13/13 A3006 RMK AO2 T01280128
KOKM 221015Z AUTO 31006KT 10SM BKN010 13/13 A3006 RMK AO2 T01300130
KOKM 220955Z AUTO 35011G16KT 10SM OVC010 13/13 A3002 RMK AO2 T01320132
KOKM 220935Z AUTO 32005KT 10SM BKN010 OVC019 14/14 A3004 RMK AO2 T01360136
KOKM 220915Z AUTO 32003KT 10SM BKN019 14/14 A3004 RMK AO2 LTG DSNT E AND S T01350135
KOKM 220855Z AUTO 34004KT 10SM SCT014 OVC019 14/14 A3002 RMK AO2 LTG DSNT NE 60013 T01370137
KOKM 220835Z AUTO 35011G18KT 10SM BKN007 OVC013 14/14 A2999 RMK AO2 LTG DSNT E THRU S T01400140
KOKM 220815Z AUTO 32005KT 10SM TS OVC009 15/15 A3000 RMK AO2 LTG DSNT E T01470147
KOKM 220755Z AUTO 00000KT 10SM VCTS BKN009 OVC016 15/15 A2997 RMK AO2 LTG DSNT NE THRU S P0003 T01500150
KOKM 220735Z AUTO 02003KT 10SM -RA SCT007 BKN012 OVC020 15/15 A2999 RMK AO2 LTG DSNT ALQS P0002 T01500150
KOKM 220715Z AUTO 02003KT 10SM -TSRA BKN009 OVC020 15/15 A2998 RMK AO2 LTG DSNT ALQS P0002 T01500150
KOKM 220655Z AUTO 32004KT 7SM TSRA BKN009 BKN023 OVC070 15/15 A2998 RMK AO2 LTG DSNT ALQS P0010 T01510151
KOKM 220635Z AUTO 05004KT 10SM -VCTSRA SCT008 SCT026 OVC090 15/15 A2998 RMK AO2 LTG DSNT NE THRU S P0004 T01520152
KOKM 220615Z AUTO 34006G17KT 10SM VCTSRA SCT008 SCT028 OVC090 15/15 A2997 RMK AO2 LTG DSNT ALQS P0003 T01520152
KOKM 220555Z AUTO 01011G18KT 10SM TSRA SCT010 SCT033 OVC090 15/15 A2994 RMK AO2 LTG DSNT ALQS P0009 60067 T01520152 10239 20147 402630147
KOKM 220535Z AUTO 02010G17KT 310V040 10SM -VCTSRA SCT010 BKN080 OVC090 16/16 A2998 RMK AO2 LTG DSNT ALQS P0005 T01550155
KOKM 220515Z AUTO 02013G20KT 10SM -TSRA SCT010 BKN075 OVC100 15/15 A2998 RMK AO2 LTG DSNT ALQS P0002 T01530153
KOKM 220455Z AUTO 36013G20KT 7SM TSRA SCT017 SCT065 OVC100 15/15 A2992 RMK AO2 LTG DSNT ALQS P0027 T01520152
KOKM 220435Z AUTO 32008KT 300V010 10SM TSRA SCT013 BKN050 OVC100 15/15 A2991 RMK AO2 LTG DSNT ALQS P0024 T01510151
KOKM 220415Z AUTO 32011KT 4SM +TSRA SCT011 BKN040 OVC048 15/15 A2988 RMK AO2 LTG DSNT ALQS P0018 T01470147
KOKM 220355Z AUTO 28007G17KT 2 1/2SM +TSRA SCT009 BKN017 OVC034 15/15 A2994 RMK AO2 LTG DSNT ALQS P0030 T01540154
KOKM 220335Z AUTO 33028G38KT 7SM +TSRA SCT029 BKN041 OVC050 17/14 A2986 RMK AO2 LTG DSNT ALQS P0004 T01720140